Time;durP1;ratioP1;P1;durP2;ratioP2;P2;SDS_P1;SDS_P2;PMS_P1;PMS_P2;Temp;Humidity;BMP_temperature;BMP_pressure;BME280_temperature;BME280_humidity;BME280_pressure;Samples;Min_cycle;Max_cycle;Signal;HPM_P1;HPM_P2
2023/12/26 00:01:45;;;;;;;12.07;11.48;;;;;;;;;;5068865;28;20024;-57
2023/12/26 00:04:11;;;;;;;11.48;10.98;;;;;;;;;;5070967;28;20059;-58
2023/12/26 00:06:38;;;;;;;11.70;11.20;;;;;;;;;;5060968;28;20095;-57
2023/12/26 00:09:03;;;;;;;11.60;11.10;;;;;;;;;;5071444;28;20029;-56
2023/12/26 00:11:30;;;;;;;11.50;11.00;;;;;;;;;;5068331;28;20032;-58
2023/12/26 00:13:55;;;;;;;11.70;11.20;;;;;;;;;;5064561;28;20017;-58
2023/12/26 00:16:21;;;;;;;11.80;11.30;;;;;;;;;;5070596;28;20039;-59
2023/12/26 00:18:46;;;;;;;11.90;11.30;;;;;;;;;;5066592;28;20024;-58
2023/12/26 00:21:12;;;;;;;11.65;11.15;;;;;;;;;;5076735;28;20024;-58
2023/12/26 00:23:37;;;;;;;11.65;11.15;;;;;;;;;;5072672;28;20028;-57
2023/12/26 00:26:04;;;;;;;11.70;11.20;;;;;;;;;;5066250;28;20067;-59
2023/12/26 00:28:29;;;;;;;11.73;11.20;;;;;;;;;;5071795;28;20043;-58
2023/12/26 00:30:54;;;;;;;11.88;11.38;;;;;;;;;;5070373;28;20016;-54
2023/12/26 00:33:20;;;;;;;11.50;11.00;;;;;;;;;;5068384;28;20089;-58
2023/12/26 00:35:45;;;;;;;11.38;10.88;;;;;;;;;;5061218;28;20021;-56
2023/12/26 00:38:11;;;;;;;11.50;11.00;;;;;;;;;;5070532;28;20027;-57
2023/12/26 00:40:41;;;;;;;12.00;11.40;;;;;;;;;;5069018;28;20555;-57
2023/12/26 00:43:06;;;;;;;11.55;11.05;;;;;;;;;;5070564;28;20008;-57
2023/12/26 00:45:31;;;;;;;11.90;11.30;;;;;;;;;;5069532;28;20020;-57
2023/12/26 00:47:57;;;;;;;11.70;11.20;;;;;;;;;;5072251;28;20086;-58
2023/12/26 00:50:22;;;;;;;11.40;10.90;;;;;;;;;;5075926;28;20404;-59
2023/12/26 00:52:48;;;;;;;11.40;10.90;;;;;;;;;;5078317;28;20074;-58
2023/12/26 00:55:13;;;;;;;11.88;11.35;;;;;;;;;;5073119;28;20028;-58
2023/12/26 00:57:38;;;;;;;11.48;10.98;;;;;;;;;;5073982;28;20020;-55
2023/12/26 01:00:05;;;;;;;11.60;11.10;;;;;;;;;;5073217;28;20028;-56
2023/12/26 01:02:31;;;;;;;11.38;10.88;;;;;;;;;;5069127;28;20103;-58
2023/12/26 01:04:56;;;;;;;11.05;10.55;;;;;;;;;;5074283;28;20108;-57
2023/12/26 01:07:21;;;;;;;11.27;10.77;;;;;;;;;;5065567;28;20078;-58
2023/12/26 01:09:47;;;;;;;11.43;10.93;;;;;;;;;;5070152;28;20031;-56
2023/12/26 01:12:13;;;;;;;11.77;11.27;;;;;;;;;;5073176;28;20025;-58
2023/12/26 01:14:40;;;;;;;12.07;11.50;;;;;;;;;;5077318;28;20646;-58
2023/12/26 01:17:05;;;;;;;11.88;11.35;;;;;;;;;;5070261;28;20106;-57
2023/12/26 01:19:31;;;;;;;11.90;11.32;;;;;;;;;;5077938;28;20017;-55
2023/12/26 01:21:56;;;;;;;11.65;11.15;;;;;;;;;;5060280;28;20091;-57
2023/12/26 01:24:21;;;;;;;11.65;11.15;;;;;;;;;;5073621;28;20020;-56
2023/12/26 01:26:47;;;;;;;11.65;11.15;;;;;;;;;;5073867;28;20029;-56
2023/12/26 01:29:12;;;;;;;11.52;11.02;;;;;;;;;;5073881;28;20048;-56
2023/12/26 01:31:37;;;;;;;11.13;10.63;;;;;;;;;;5068502;28;20059;-57
2023/12/26 01:34:03;;;;;;;11.18;10.68;;;;;;;;;;5066664;28;20024;-57
2023/12/26 01:36:28;;;;;;;11.60;11.10;;;;;;;;;;5073503;28;20035;-56
2023/12/26 01:38:54;;;;;;;11.52;11.02;;;;;;;;;;5073796;28;20017;-57
2023/12/26 01:41:19;;;;;;;11.48;10.98;;;;;;;;;;5070936;28;20074;-56
2023/12/26 01:43:45;;;;;;;11.90;11.30;;;;;;;;;;5073737;28;20020;-57
2023/12/26 01:46:10;;;;;;;12.00;11.40;;;;;;;;;;5068792;28;20021;-59
2023/12/26 01:48:36;;;;;;;11.52;11.02;;;;;;;;;;5066870;28;20031;-58
2023/12/26 01:51:02;;;;;;;11.15;10.65;;;;;;;;;;5076188;28;20468;-56
2023/12/26 01:53:27;;;;;;;11.48;10.98;;;;;;;;;;5073389;28;20446;-54
2023/12/26 01:55:53;;;;;;;10.95;10.45;;;;;;;;;;5073103;28;20023;-57
2023/12/26 01:58:18;;;;;;;11.70;11.20;;;;;;;;;;5086859;28;20029;-56
2023/12/26 02:00:44;;;;;;;12.00;11.40;;;;;;;;;;5072855;28;20032;-57
2023/12/26 02:03:09;;;;;;;11.25;10.75;;;;;;;;;;5069145;28;20476;-55
2023/12/26 02:05:35;;;;;;;11.50;11.00;;;;;;;;;;5073265;28;20097;-55
2023/12/26 02:08:00;;;;;;;11.50;11.00;;;;;;;;;;5072085;28;20080;-59
2023/12/26 02:10:25;;;;;;;11.90;11.32;;;;;;;;;;5073379;28;20063;-56
2023/12/26 02:12:51;;;;;;;11.77;11.27;;;;;;;;;;5072613;28;20017;-60
2023/12/26 02:15:16;;;;;;;12.07;11.48;;;;;;;;;;5072983;28;20043;-55
2023/12/26 02:17:42;;;;;;;11.55;11.05;;;;;;;;;;5069785;28;20404;-57
2023/12/26 02:20:07;;;;;;;11.30;10.80;;;;;;;;;;5073010;28;20104;-57
2023/12/26 02:22:34;;;;;;;11.63;11.13;;;;;;;;;;5070371;28;20138;-56
2023/12/26 02:25:00;;;;;;;11.27;10.77;;;;;;;;;;5073131;28;20376;-56
2023/12/26 02:27:29;;;;;;;11.63;11.13;;;;;;;;;;5070982;28;20039;-57
2023/12/26 02:29:54;;;;;;;11.40;10.90;;;;;;;;;;5072653;28;20020;-60
2023/12/26 02:32:21;;;;;;;11.50;11.00;;;;;;;;;;5071657;28;20020;-56
2023/12/26 02:34:48;;;;;;;11.90;11.30;;;;;;;;;;5073877;28;20480;-57
2023/12/26 02:37:13;;;;;;;11.48;10.98;;;;;;;;;;5067898;28;20027;-55
2023/12/26 02:39:40;;;;;;;12.07;11.48;;;;;;;;;;5071519;28;20021;-57
2023/12/26 02:42:05;;;;;;;11.60;11.10;;;;;;;;;;5071558;28;20123;-57
2023/12/26 02:44:31;;;;;;;11.85;11.30;;;;;;;;;;5068625;28;20523;-58
2023/12/26 02:46:56;;;;;;;11.60;11.10;;;;;;;;;;5071642;28;20039;-55
2023/12/26 02:49:21;;;;;;;11.30;10.80;;;;;;;;;;5072026;28;20028;-54
2023/12/26 02:51:47;;;;;;;11.60;11.10;;;;;;;;;;5071144;28;20020;-55
2023/12/26 02:54:12;;;;;;;11.43;10.93;;;;;;;;;;5066982;28;20021;-57
2023/12/26 02:56:37;;;;;;;11.18;10.68;;;;;;;;;;5061341;28;20032;-55
2023/12/26 02:59:03;;;;;;;11.50;11.00;;;;;;;;;;5069305;28;20013;-56
2023/12/26 03:01:28;;;;;;;11.90;11.30;;;;;;;;;;5071901;28;20016;-58
2023/12/26 03:03:53;;;;;;;11.27;10.77;;;;;;;;;;5071542;28;20017;-57
2023/12/26 03:06:19;;;;;;;11.63;11.10;;;;;;;;;;5071991;28;20044;-57
2023/12/26 03:08:44;;;;;;;11.63;11.07;;;;;;;;;;5065136;28;20404;-56
2023/12/26 03:11:10;;;;;;;11.82;11.23;;;;;;;;;;5072167;28;20451;-54
2023/12/26 03:13:35;;;;;;;11.40;10.90;;;;;;;;;;5064952;28;20392;-57
2023/12/26 03:16:00;;;;;;;11.60;11.10;;;;;;;;;;5069889;28;20094;-58
2023/12/26 03:18:26;;;;;;;11.40;10.90;;;;;;;;;;5069639;28;20093;-56
2023/12/26 03:20:51;;;;;;;11.65;11.15;;;;;;;;;;5071573;28;20036;-56
2023/12/26 03:23:16;;;;;;;11.25;10.75;;;;;;;;;;5066523;28;20024;-56
2023/12/26 03:25:42;;;;;;;11.27;10.77;;;;;;;;;;5069309;28;20024;-57
2023/12/26 03:28:07;;;;;;;11.90;11.30;;;;;;;;;;5065261;28;20048;-58
2023/12/26 03:30:33;;;;;;;11.90;11.30;;;;;;;;;;5072092;28;20085;-58
2023/12/26 03:32:58;;;;;;;11.55;11.05;;;;;;;;;;5071445;28;20499;-56
2023/12/26 03:35:24;;;;;;;11.73;11.20;;;;;;;;;;5069709;28;20032;-55
2023/12/26 03:37:49;;;;;;;11.43;10.93;;;;;;;;;;5061731;28;20013;-58
2023/12/26 03:40:16;;;;;;;11.50;11.00;;;;;;;;;;5070253;28;20044;-57
2023/12/26 03:42:42;;;;;;;11.25;10.75;;;;;;;;;;5064337;28;20074;-56
2023/12/26 03:45:08;;;;;;;11.43;10.93;;;;;;;;;;5069628;28;20032;-57
2023/12/26 03:47:33;;;;;;;11.27;10.77;;;;;;;;;;5069523;28;20025;-57
2023/12/26 03:49:59;;;;;;;11.50;11.00;;;;;;;;;;5068786;28;20024;-56
2023/12/26 03:52:24;;;;;;;11.18;10.68;;;;;;;;;;5070021;28;20095;-55
2023/12/26 03:54:51;;;;;;;11.50;11.00;;;;;;;;;;5067383;28;20140;-57
2023/12/26 03:57:16;;;;;;;11.80;11.20;;;;;;;;;;5070041;28;20028;-56
2023/12/26 03:59:42;;;;;;;11.32;10.82;;;;;;;;;;5065144;28;20020;-57
2023/12/26 04:02:07;;;;;;;12.40;11.80;;;;;;;;;;5070172;28;20039;-57
2023/12/26 04:04:32;;;;;;;11.27;10.77;;;;;;;;;;5064738;28;20112;-55
2023/12/26 04:06:58;;;;;;;11.45;10.95;;;;;;;;;;5067797;28;20055;-57
2023/12/26 04:09:23;;;;;;;11.13;10.63;;;;;;;;;;5070831;28;20060;-56
2023/12/26 04:11:48;;;;;;;10.98;10.48;;;;;;;;;;5066637;28;20021;-55
2023/12/26 04:14:14;;;;;;;11.40;10.90;;;;;;;;;;5071397;28;20028;-58
2023/12/26 04:16:40;;;;;;;11.13;10.63;;;;;;;;;;5070829;28;20549;-58
2023/12/26 04:19:05;;;;;;;11.27;10.77;;;;;;;;;;5070221;28;20025;-58
2023/12/26 04:21:30;;;;;;;11.40;10.90;;;;;;;;;;5060578;28;20078;-56
2023/12/26 04:23:56;;;;;;;11.10;10.60;;;;;;;;;;5074986;28;20091;-56
2023/12/26 04:26:21;;;;;;;11.68;11.10;;;;;;;;;;5071577;28;20020;-58
2023/12/26 04:28:46;;;;;;;10.88;10.38;;;;;;;;;;5074974;28;20086;-58
2023/12/26 04:31:12;;;;;;;11.82;11.23;;;;;;;;;;5069280;28;20094;-56
2023/12/26 04:33:37;;;;;;;11.20;10.70;;;;;;;;;;5071616;28;20009;-57
2023/12/26 04:36:05;;;;;;;11.32;10.82;;;;;;;;;;5069681;28;20036;-56
2023/12/26 04:38:31;;;;;;;11.10;10.60;;;;;;;;;;5071516;28;20054;-59
2023/12/26 04:40:56;;;;;;;11.40;10.90;;;;;;;;;;5072709;28;20025;-56
2023/12/26 04:43:22;;;;;;;11.10;10.60;;;;;;;;;;5069200;28;20021;-58
2023/12/26 04:45:47;;;;;;;11.27;10.77;;;;;;;;;;5073154;28;20025;-59
2023/12/26 04:48:12;;;;;;;11.10;10.60;;;;;;;;;;5067599;28;20036;-56
2023/12/26 04:50:38;;;;;;;11.30;10.80;;;;;;;;;;5074646;28;20031;-56
2023/12/26 04:53:04;;;;;;;11.63;11.07;;;;;;;;;;5064224;28;20040;-58
2023/12/26 04:55:30;;;;;;;11.60;11.02;;;;;;;;;;5069842;28;20408;-56
2023/12/26 04:57:55;;;;;;;11.75;11.20;;;;;;;;;;5071845;28;20016;-59
2023/12/26 05:00:21;;;;;;;11.95;11.35;;;;;;;;;;5071614;28;20020;-56
2023/12/26 05:02:46;;;;;;;11.30;10.80;;;;;;;;;;5075667;28;20027;-57
2023/12/26 05:05:11;;;;;;;11.60;11.05;;;;;;;;;;5073974;28;20032;-57
2023/12/26 05:07:37;;;;;;;11.38;10.88;;;;;;;;;;5071060;28;20388;-58
2023/12/26 05:10:02;;;;;;;11.30;10.80;;;;;;;;;;5071620;28;20118;-55
2023/12/26 05:12:28;;;;;;;11.20;10.70;;;;;;;;;;5074391;28;20514;-57
2023/12/26 05:14:53;;;;;;;11.13;10.63;;;;;;;;;;5063998;28;20092;-58
2023/12/26 05:17:18;;;;;;;11.77;11.18;;;;;;;;;;5073668;28;20048;-57
2023/12/26 05:19:44;;;;;;;11.40;10.90;;;;;;;;;;5073714;28;20025;-57
2023/12/26 05:22:09;;;;;;;11.52;11.02;;;;;;;;;;5073528;28;20104;-55
2023/12/26 05:24:35;;;;;;;11.18;10.68;;;;;;;;;;5075276;28;20392;-56
2023/12/26 05:27:00;;;;;;;11.27;10.77;;;;;;;;;;5073896;28;20021;-59
2023/12/26 05:29:25;;;;;;;11.38;10.88;;;;;;;;;;5066901;28;20029;-59
2023/12/26 05:31:52;;;;;;;11.02;10.52;;;;;;;;;;5073145;28;20467;-58
2023/12/26 05:34:18;;;;;;;11.43;10.93;;;;;;;;;;5073164;28;20029;-56
2023/12/26 05:36:43;;;;;;;11.18;10.68;;;;;;;;;;5061832;28;20055;-57
2023/12/26 05:39:09;;;;;;;11.25;10.75;;;;;;;;;;5067526;28;20024;-58
2023/12/26 05:41:36;;;;;;;11.40;10.90;;;;;;;;;;5072879;28;20017;-57
2023/12/26 05:44:01;;;;;;;11.02;10.52;;;;;;;;;;5062265;28;20090;-56
2023/12/26 05:46:30;;;;;;;11.40;10.90;;;;;;;;;;5073520;28;20056;-57
2023/12/26 05:48:56;;;;;;;11.00;10.50;;;;;;;;;;5072641;28;20107;-56
2023/12/26 05:51:21;;;;;;;11.40;10.90;;;;;;;;;;5071864;28;20104;-58
2023/12/26 05:53:46;;;;;;;11.50;11.00;;;;;;;;;;5073352;28;20173;-58
2023/12/26 05:56:12;;;;;;;11.27;10.77;;;;;;;;;;5069685;28;20029;-57
2023/12/26 05:58:39;;;;;;;11.82;11.23;;;;;;;;;;5072990;28;20040;-58
2023/12/26 06:01:08;;;;;;;11.30;10.80;;;;;;;;;;5072187;28;20024;-56
2023/12/26 06:03:33;;;;;;;11.15;10.65;;;;;;;;;;5069730;28;20025;-57
2023/12/26 06:05:59;;;;;;;11.07;10.57;;;;;;;;;;5072468;28;20024;-59
2023/12/26 06:08:25;;;;;;;10.80;10.30;;;;;;;;;;5071911;28;20066;-55
2023/12/26 06:10:50;;;;;;;11.18;10.68;;;;;;;;;;5070135;28;20021;-57
2023/12/26 06:13:15;;;;;;;11.45;10.95;;;;;;;;;;5073787;28;20028;-54
2023/12/26 06:15:41;;;;;;;11.27;10.77;;;;;;;;;;5064902;28;20050;-58
2023/12/26 06:18:06;;;;;;;11.38;10.88;;;;;;;;;;5070608;28;20012;-53
2023/12/26 06:20:32;;;;;;;11.68;11.10;;;;;;;;;;5069035;28;20092;-58
2023/12/26 06:22:57;;;;;;;11.73;11.13;;;;;;;;;;5071359;28;20029;-61
2023/12/26 06:25:22;;;;;;;11.55;11.00;;;;;;;;;;5066764;28;20387;-57
2023/12/26 06:27:48;;;;;;;11.32;10.82;;;;;;;;;;5072945;28;20434;-57
2023/12/26 06:30:13;;;;;;;11.35;10.85;;;;;;;;;;5072306;28;20025;-57
2023/12/26 06:32:39;;;;;;;11.57;11.07;;;;;;;;;;5071057;28;20406;-60
2023/12/26 06:35:04;;;;;;;11.05;10.55;;;;;;;;;;5072770;28;20013;-58
2023/12/26 06:37:29;;;;;;;11.43;10.93;;;;;;;;;;5072401;28;20024;-57
2023/12/26 06:39:55;;;;;;;11.30;10.80;;;;;;;;;;5069749;28;20166;-56
2023/12/26 06:42:21;;;;;;;11.07;10.57;;;;;;;;;;5072563;28;20015;-58
2023/12/26 06:44:46;;;;;;;11.20;10.70;;;;;;;;;;5071229;28;20057;-57
2023/12/26 06:47:12;;;;;;;11.98;11.38;;;;;;;;;;5068213;28;20040;-60
2023/12/26 06:49:37;;;;;;;11.52;11.02;;;;;;;;;;5072287;28;20103;-57
2023/12/26 06:52:02;;;;;;;11.70;11.20;;;;;;;;;;5072751;28;20020;-57
2023/12/26 06:54:28;;;;;;;11.20;10.70;;;;;;;;;;5068332;28;20024;-57
2023/12/26 06:56:53;;;;;;;11.45;10.95;;;;;;;;;;5076794;28;20472;-58
2023/12/26 06:59:19;;;;;;;11.85;11.35;;;;;;;;;;5069912;28;20104;-59
2023/12/26 07:01:45;;;;;;;12.30;11.73;;;;;;;;;;5071231;28;20024;-57
2023/12/26 07:04:11;;;;;;;12.40;11.80;;;;;;;;;;5072201;28;20048;-59
2023/12/26 07:06:36;;;;;;;12.25;11.75;;;;;;;;;;5069883;28;20048;-59
2023/12/26 07:09:02;;;;;;;12.50;11.90;;;;;;;;;;5071696;28;20449;-58
2023/12/26 07:11:28;;;;;;;12.55;11.95;;;;;;;;;;5071121;28;20043;-57
2023/12/26 07:13:53;;;;;;;12.63;12.02;;;;;;;;;;5062628;28;20422;-59
2023/12/26 07:16:19;;;;;;;12.85;12.25;;;;;;;;;;5069214;28;20048;-58
2023/12/26 07:18:45;;;;;;;12.85;12.25;;;;;;;;;;5071754;28;20024;-58
2023/12/26 07:21:10;;;;;;;13.40;12.80;;;;;;;;;;5068671;28;20020;-59
2023/12/26 07:23:36;;;;;;;13.20;12.60;;;;;;;;;;5071442;28;20020;-58
2023/12/26 07:26:01;;;;;;;13.02;12.43;;;;;;;;;;5070888;28;20052;-59
2023/12/26 07:28:26;;;;;;;13.05;12.45;;;;;;;;;;5068886;28;20032;-59
2023/12/26 07:30:52;;;;;;;13.45;12.85;;;;;;;;;;5067107;28;20082;-59
2023/12/26 07:33:17;;;;;;;13.18;12.57;;;;;;;;;;5071582;28;20028;-58
2023/12/26 07:35:42;;;;;;;13.25;12.65;;;;;;;;;;5065941;28;20028;-59
2023/12/26 07:38:08;;;;;;;13.50;12.90;;;;;;;;;;5070028;28;20016;-59
2023/12/26 07:40:33;;;;;;;13.95;13.35;;;;;;;;;;5069219;28;20027;-59
2023/12/26 07:42:58;;;;;;;13.48;12.88;;;;;;;;;;5070829;28;20527;-59
2023/12/26 07:45:25;;;;;;;13.27;12.68;;;;;;;;;;5068482;28;20248;-60
2023/12/26 07:47:50;;;;;;;13.73;13.13;;;;;;;;;;5068859;28;20119;-60
2023/12/26 07:50:16;;;;;;;13.52;12.93;;;;;;;;;;5067169;28;20523;-59
2023/12/26 07:52:42;;;;;;;13.25;12.65;;;;;;;;;;5073578;28;20011;-59
2023/12/26 07:55:07;;;;;;;13.27;12.68;;;;;;;;;;5070150;28;20468;-63
2023/12/26 07:57:32;;;;;;;13.32;12.73;;;;;;;;;;5071377;28;20028;-58
2023/12/26 07:59:58;;;;;;;13.50;12.90;;;;;;;;;;5068092;28;20096;-59
2023/12/26 08:02:24;;;;;;;13.25;12.65;;;;;;;;;;5070103;28;20103;-59
2023/12/26 08:04:49;;;;;;;13.27;12.68;;;;;;;;;;5060825;28;20036;-57
2023/12/26 08:07:14;;;;;;;13.18;12.57;;;;;;;;;;5070389;28;20027;-61
2023/12/26 08:09:41;;;;;;;13.43;12.82;;;;;;;;;;5064478;28;20063;-60
2023/12/26 08:12:08;;;;;;;13.50;12.90;;;;;;;;;;5069021;28;20013;-58
2023/12/26 08:14:33;;;;;;;13.35;12.75;;;;;;;;;;5071098;28;20111;-59
2023/12/26 08:16:58;;;;;;;13.50;12.90;;;;;;;;;;5067720;28;20127;-58
2023/12/26 08:19:25;;;;;;;13.05;12.45;;;;;;;;;;5069036;28;20043;-58
2023/12/26 08:21:50;;;;;;;13.30;12.70;;;;;;;;;;5069801;28;20021;-59
2023/12/26 08:24:16;;;;;;;13.20;12.60;;;;;;;;;;5068051;28;20021;-60
2023/12/26 08:26:41;;;;;;;12.73;12.13;;;;;;;;;;5069761;28;20017;-59
2023/12/26 08:29:07;;;;;;;13.23;12.63;;;;;;;;;;5070614;28;20095;-59
2023/12/26 08:31:32;;;;;;;13.02;12.43;;;;;;;;;;5063996;28;20027;-58
2023/12/26 08:33:58;;;;;;;13.25;12.65;;;;;;;;;;5063428;28;20017;-58
2023/12/26 08:36:24;;;;;;;13.30;12.70;;;;;;;;;;5069989;28;20032;-60
2023/12/26 08:38:50;;;;;;;13.25;12.65;;;;;;;;;;5070636;28;20019;-58
2023/12/26 08:41:15;;;;;;;13.35;12.75;;;;;;;;;;5067939;28;20088;-58
2023/12/26 08:43:41;;;;;;;13.32;12.73;;;;;;;;;;5070452;28;20028;-61
2023/12/26 08:46:06;;;;;;;12.93;12.32;;;;;;;;;;5068543;28;20021;-58
2023/12/26 08:48:31;;;;;;;13.00;12.40;;;;;;;;;;5071766;28;20373;-59
2023/12/26 08:50:58;;;;;;;13.20;12.60;;;;;;;;;;5070127;28;20384;-59
2023/12/26 08:53:23;;;;;;;12.90;12.30;;;;;;;;;;5068220;28;20480;-58
2023/12/26 08:55:48;;;;;;;13.20;12.60;;;;;;;;;;5068565;28;20029;-59
2023/12/26 08:58:17;;;;;;;13.25;12.65;;;;;;;;;;5069458;28;20490;-59
2023/12/26 09:00:44;;;;;;;13.20;12.60;;;;;;;;;;5069288;28;20023;-59
2023/12/26 09:03:10;;;;;;;13.40;12.80;;;;;;;;;;5070121;28;20024;-59
2023/12/26 09:05:35;;;;;;;13.15;12.55;;;;;;;;;;5066267;28;20468;-58
2023/12/26 09:08:01;;;;;;;13.25;12.65;;;;;;;;;;5067812;28;20074;-60
2023/12/26 09:10:26;;;;;;;13.02;12.43;;;;;;;;;;5067010;28;20027;-60
2023/12/26 09:12:51;;;;;;;13.23;12.63;;;;;;;;;;5072152;28;20020;-60
2023/12/26 09:15:17;;;;;;;13.30;12.70;;;;;;;;;;5070845;28;20031;-58
2023/12/26 09:17:42;;;;;;;13.15;12.55;;;;;;;;;;5073461;28;20131;-58
2023/12/26 09:20:09;;;;;;;12.90;12.30;;;;;;;;;;5071344;28;20031;-58
2023/12/26 09:22:35;;;;;;;13.18;12.57;;;;;;;;;;5074320;28;20556;-58
2023/12/26 09:25:00;;;;;;;12.93;12.32;;;;;;;;;;5074059;28;20096;-59
2023/12/26 09:27:25;;;;;;;12.80;12.20;;;;;;;;;;5075229;28;20055;-59
2023/12/26 09:29:51;;;;;;;13.20;12.60;;;;;;;;;;5063563;28;20078;-59
2023/12/26 09:32:16;;;;;;;13.15;12.55;;;;;;;;;;5072617;28;20021;-59
2023/12/26 09:34:41;;;;;;;13.15;12.55;;;;;;;;;;5073197;28;20024;-59
2023/12/26 09:37:07;;;;;;;12.98;12.38;;;;;;;;;;5066907;28;20026;-58
2023/12/26 09:39:32;;;;;;;13.40;12.80;;;;;;;;;;5073704;28;20103;-59
2023/12/26 09:41:58;;;;;;;12.90;12.30;;;;;;;;;;5062722;28;20490;-58
2023/12/26 09:44:23;;;;;;;13.10;12.50;;;;;;;;;;5078804;28;20598;-59
2023/12/26 09:46:51;;;;;;;13.35;12.75;;;;;;;;;;5073124;28;20031;-58
2023/12/26 09:49:16;;;;;;;13.10;12.50;;;;;;;;;;5072890;28;20024;-59
2023/12/26 09:51:43;;;;;;;13.05;12.45;;;;;;;;;;5070350;28;20021;-57
2023/12/26 09:54:10;;;;;;;13.07;12.48;;;;;;;;;;5072874;28;20036;-59
2023/12/26 09:56:38;;;;;;;13.27;12.68;;;;;;;;;;5064105;28;20105;-58
2023/12/26 09:59:03;;;;;;;13.52;12.93;;;;;;;;;;5072679;28;20091;-57
2023/12/26 10:01:29;;;;;;;13.55;12.95;;;;;;;;;;5069466;28;20158;-58
2023/12/26 10:03:56;;;;;;;13.20;12.60;;;;;;;;;;5058432;28;20017;-59
2023/12/26 10:06:22;;;;;;;13.52;12.93;;;;;;;;;;5067119;28;20051;-60
2023/12/26 10:08:47;;;;;;;12.85;12.25;;;;;;;;;;5062118;28;20044;-58
2023/12/26 10:11:15;;;;;;;13.20;12.60;;;;;;;;;;5063258;28;20028;-58
2023/12/26 10:13:52;;;;;;;13.20;12.60;;;;;;;;;;5062311;28;20029;-59
2023/12/26 10:16:18;;;;;;;13.25;12.65;;;;;;;;;;5070772;28;20059;-57
2023/12/26 10:18:43;;;;;;;13.30;12.70;;;;;;;;;;5072356;28;20036;-58
2023/12/26 10:21:09;;;;;;;13.05;12.45;;;;;;;;;;5072673;28;20020;-59
2023/12/26 10:23:34;;;;;;;13.10;12.50;;;;;;;;;;5072689;28;20023;-59
2023/12/26 10:26:00;;;;;;;13.15;12.55;;;;;;;;;;5073732;28;20028;-59
2023/12/26 10:28:25;;;;;;;13.20;12.60;;;;;;;;;;5070342;28;20480;-59
2023/12/26 10:30:51;;;;;;;13.10;12.50;;;;;;;;;;5072230;28;20051;-57
2023/12/26 10:33:24;;;;;;;13.00;12.40;;;;;;;;;;5072667;28;20032;-58
2023/12/26 10:36:03;;;;;;;12.60;12.00;;;;;;;;;;5068376;28;20048;-59
2023/12/26 10:38:29;;;;;;;13.10;12.50;;;;;;;;;;5063956;28;20492;-60
2023/12/26 10:40:57;;;;;;;12.40;11.82;;;;;;;;;;5069435;28;20074;-61
2023/12/26 10:43:23;;;;;;;12.80;12.20;;;;;;;;;;5069876;28;20028;-60
2023/12/26 10:45:49;;;;;;;13.20;12.60;;;;;;;;;;5064413;28;20016;-59
2023/12/26 10:48:15;;;;;;;13.00;12.40;;;;;;;;;;5071660;28;20100;-59
2023/12/26 10:50:40;;;;;;;13.00;12.40;;;;;;;;;;5070544;28;20104;-59
2023/12/26 10:53:21;;;;;;;12.90;12.30;;;;;;;;;;5070835;28;20020;-60
2023/12/26 10:55:46;;;;;;;12.75;12.15;;;;;;;;;;5071096;28;20386;-59
2023/12/26 10:58:15;;;;;;;13.27;12.68;;;;;;;;;;5070327;28;20020;-59
2023/12/26 11:00:53;;;;;;;12.88;12.27;;;;;;;;;;5070164;28;20472;-60
2023/12/26 13:51:25;;;;;;;12.98;12.38;;;;;;;;;;5069351;28;20016;-58
2023/12/26 13:53:51;;;;;;;12.85;12.25;;;;;;;;;;5072004;28;20028;-58
2023/12/26 13:56:16;;;;;;;13.15;12.55;;;;;;;;;;5071839;28;20024;-58
2023/12/26 13:58:42;;;;;;;12.88;12.27;;;;;;;;;;5072031;28;20073;-56
2023/12/26 14:01:07;;;;;;;12.57;11.98;;;;;;;;;;5067115;28;20016;-60
2023/12/26 14:03:34;;;;;;;12.68;12.07;;;;;;;;;;5071939;28;20021;-59
2023/12/26 14:06:00;;;;;;;12.35;11.80;;;;;;;;;;5072554;28;20491;-60
2023/12/26 14:08:25;;;;;;;12.50;11.90;;;;;;;;;;5072018;28;20115;-59
2023/12/26 14:10:50;;;;;;;12.80;12.20;;;;;;;;;;5071115;28;20024;-57
2023/12/26 14:13:16;;;;;;;12.40;11.80;;;;;;;;;;5072538;28;20107;-59
2023/12/26 14:15:41;;;;;;;12.32;11.73;;;;;;;;;;5073024;28;20100;-57
2023/12/26 14:18:09;;;;;;;12.35;11.75;;;;;;;;;;5070371;28;20614;-57
2023/12/26 14:20:34;;;;;;;13.20;12.60;;;;;;;;;;5068726;28;20017;-56
2023/12/26 14:22:59;;;;;;;13.20;12.60;;;;;;;;;;5070979;28;20020;-60
2023/12/26 14:25:28;;;;;;;12.80;12.20;;;;;;;;;;5072571;28;20020;-57
2023/12/26 14:27:53;;;;;;;13.25;12.65;;;;;;;;;;5065600;28;20059;-57
2023/12/26 14:30:18;;;;;;;12.75;12.15;;;;;;;;;;5071654;28;20056;-54
2023/12/26 14:32:44;;;;;;;12.32;11.77;;;;;;;;;;5066858;28;20036;-58
2023/12/26 14:35:09;;;;;;;12.73;12.13;;;;;;;;;;5066723;28;20420;-60
2023/12/26 14:37:35;;;;;;;12.70;12.10;;;;;;;;;;5066853;28;20017;-59
2023/12/26 14:40:00;;;;;;;12.75;12.15;;;;;;;;;;5072390;28;20012;-59
2023/12/26 14:42:25;;;;;;;12.40;11.80;;;;;;;;;;5069914;28;20095;-59
2023/12/26 14:44:51;;;;;;;12.68;12.07;;;;;;;;;;5071502;28;20078;-59
2023/12/26 14:47:16;;;;;;;12.50;11.90;;;;;;;;;;5065695;28;20102;-57
2023/12/26 14:49:42;;;;;;;12.70;12.10;;;;;;;;;;5071246;28;20048;-59
2023/12/26 14:52:08;;;;;;;12.80;12.20;;;;;;;;;;5068382;28;20055;-58
2023/12/26 14:54:33;;;;;;;12.50;11.90;;;;;;;;;;5068369;28;20543;-60
2023/12/26 14:56:59;;;;;;;12.25;11.65;;;;;;;;;;5070085;28;20154;-57
2023/12/26 14:59:25;;;;;;;12.38;11.77;;;;;;;;;;5071783;28;20017;-58
2023/12/26 15:01:50;;;;;;;11.90;11.40;;;;;;;;;;5067149;28;20052;-59
2023/12/26 15:04:16;;;;;;;11.95;11.45;;;;;;;;;;5066682;28;20114;-58
2023/12/26 15:06:41;;;;;;;12.95;12.35;;;;;;;;;;5065270;28;20027;-58
2023/12/26 15:09:07;;;;;;;12.35;11.75;;;;;;;;;;5061412;28;20024;-58
2023/12/26 15:11:32;;;;;;;11.90;11.40;;;;;;;;;;5068283;28;20032;-56
2023/12/26 15:13:57;;;;;;;12.55;11.95;;;;;;;;;;5071948;28;20031;-59
2023/12/26 15:16:23;;;;;;;12.48;11.88;;;;;;;;;;5067244;28;20400;-59
2023/12/26 15:18:48;;;;;;;12.07;11.57;;;;;;;;;;5069811;28;20020;-59
2023/12/26 15:21:13;;;;;;;12.38;11.77;;;;;;;;;;5070052;28;20425;-57
2023/12/26 15:23:40;;;;;;;12.63;12.02;;;;;;;;;;5065794;28;20017;-56
2023/12/26 15:26:13;;;;;;;12.45;11.85;;;;;;;;;;5070081;28;20020;-55
2023/12/26 15:28:39;;;;;;;12.85;12.25;;;;;;;;;;5063276;28;20046;-57
2023/12/26 15:31:09;;;;;;;12.35;11.77;;;;;;;;;;5068646;28;20020;-59
2023/12/26 15:33:34;;;;;;;12.13;11.63;;;;;;;;;;5068892;28;20394;-59
2023/12/26 15:36:00;;;;;;;12.55;11.95;;;;;;;;;;5072060;28;20094;-60
2023/12/26 15:38:26;;;;;;;12.18;11.65;;;;;;;;;;5068621;28;20048;-58
2023/12/26 15:40:51;;;;;;;12.80;12.20;;;;;;;;;;5071552;28;20024;-60
2023/12/26 15:43:17;;;;;;;12.43;11.82;;;;;;;;;;5063090;28;20089;-56
2023/12/26 15:45:45;;;;;;;12.57;11.98;;;;;;;;;;5066376;28;20497;-59
2023/12/26 15:48:10;;;;;;;12.57;11.98;;;;;;;;;;5060232;28;20016;-57
2023/12/26 15:50:36;;;;;;;11.82;11.32;;;;;;;;;;5072522;28;20019;-58
2023/12/26 15:53:01;;;;;;;12.98;12.38;;;;;;;;;;5070898;28;20032;-56
2023/12/26 15:55:27;;;;;;;12.70;12.10;;;;;;;;;;5069591;28;20473;-59
2023/12/26 15:57:53;;;;;;;12.65;12.05;;;;;;;;;;5064833;28;20074;-59
2023/12/26 16:00:19;;;;;;;13.27;12.68;;;;;;;;;;5066997;28;20017;-59
2023/12/26 16:02:44;;;;;;;11.93;11.43;;;;;;;;;;5067918;28;20388;-59
2023/12/26 16:05:10;;;;;;;12.35;11.75;;;;;;;;;;5070968;28;20021;-58
2023/12/26 16:07:35;;;;;;;12.40;11.80;;;;;;;;;;5066398;28;20100;-59
2023/12/26 16:10:01;;;;;;;12.52;11.93;;;;;;;;;;5069978;28;20028;-59
2023/12/26 16:12:26;;;;;;;12.32;11.75;;;;;;;;;;5065829;28;20103;-58
2023/12/26 16:14:51;;;;;;;12.43;11.82;;;;;;;;;;5069901;28;20042;-58
2023/12/26 16:17:17;;;;;;;12.80;12.20;;;;;;;;;;5067457;28;20076;-57
2023/12/26 16:19:42;;;;;;;12.73;12.13;;;;;;;;;;5069871;28;20017;-59
2023/12/26 16:22:07;;;;;;;12.65;12.05;;;;;;;;;;5070652;28;20025;-58
2023/12/26 16:24:33;;;;;;;12.90;12.30;;;;;;;;;;5062242;28;20063;-59
2023/12/26 16:26:59;;;;;;;12.52;11.93;;;;;;;;;;5066859;28;20040;-58
2023/12/26 16:29:24;;;;;;;12.73;12.13;;;;;;;;;;5070691;28;20199;-59
2023/12/26 16:31:49;;;;;;;12.50;11.90;;;;;;;;;;5066376;28;20040;-59
2023/12/26 16:34:15;;;;;;;12.93;12.32;;;;;;;;;;5070487;28;20040;-58
2023/12/26 16:36:40;;;;;;;12.68;12.07;;;;;;;;;;5084765;28;20025;-58
2023/12/26 16:39:06;;;;;;;12.98;12.38;;;;;;;;;;5068037;28;20016;-59
2023/12/26 16:41:32;;;;;;;12.57;11.98;;;;;;;;;;5070440;28;20024;-59
2023/12/26 16:43:57;;;;;;;12.82;12.23;;;;;;;;;;5069536;28;20021;-61
2023/12/26 16:46:22;;;;;;;12.68;12.07;;;;;;;;;;5070498;28;20109;-58
2023/12/26 16:48:48;;;;;;;12.55;11.95;;;;;;;;;;5070418;28;20020;-58
2023/12/26 16:51:14;;;;;;;12.77;12.18;;;;;;;;;;5071298;28;20024;-58
2023/12/26 16:53:39;;;;;;;12.90;12.30;;;;;;;;;;5070452;28;20028;-57
2023/12/26 16:56:08;;;;;;;12.27;11.68;;;;;;;;;;5070893;28;20115;-57